createdAt,value
2022-10-25T00:01:52.707Z,13.40
2022-10-25T00:03:58.159Z,13.45
2022-10-25T00:06:02.879Z,13.39
2022-10-25T00:08:08.006Z,13.40
2022-10-25T00:10:12.553Z,13.35
2022-10-25T00:12:17.301Z,13.32
2022-10-25T00:14:22.025Z,13.34
2022-10-25T00:16:28.720Z,13.29
2022-10-25T00:18:36.495Z,13.24
2022-10-25T00:20:41.278Z,13.26
2022-10-25T00:22:46.291Z,13.24
2022-10-25T00:24:51.017Z,13.18
2022-10-25T00:26:56.425Z,13.20
2022-10-25T00:29:01.250Z,13.21
2022-10-25T00:31:07.364Z,13.23
2022-10-25T00:33:12.090Z,13.30
2022-10-25T00:35:19.549Z,13.31
2022-10-25T00:37:26.563Z,13.31
2022-10-25T00:39:31.444Z,13.34
2022-10-25T00:41:37.241Z,13.28
2022-10-25T00:43:45.677Z,13.29
2022-10-25T00:45:50.661Z,13.25
2022-10-25T00:47:59.617Z,13.27
2022-10-25T00:50:12.565Z,13.25
2022-10-25T00:52:19.980Z,13.18
2022-10-25T00:54:29.401Z,13.24
2022-10-25T00:56:38.445Z,13.16
2022-10-25T00:58:46.325Z,13.11
2022-10-25T01:00:51.589Z,13.09
2022-10-25T01:02:57.110Z,13.13
2022-10-25T01:05:02.163Z,13.15
2022-10-25T01:07:06.973Z,13.18
2022-10-25T01:09:18.853Z,13.14
2022-10-25T01:11:23.787Z,13.10
2022-10-25T01:13:28.981Z,13.10
2022-10-25T01:15:36.547Z,13.05
2022-10-25T01:17:52.675Z,13.04
2022-10-25T01:20:29.015Z,13.03
2022-10-25T01:22:41.845Z,13.00
2022-10-25T01:25:20.705Z,13.05
2022-10-25T01:28:05.258Z,13.02
2022-10-25T01:30:21.748Z,13.05
2022-10-25T01:32:37.848Z,13.04
2022-10-25T01:34:49.070Z,12.98
2022-10-25T01:37:04.150Z,12.97
2022-10-25T01:39:14.126Z,12.97
2022-10-25T01:41:26.166Z,12.97
2022-10-25T01:43:40.070Z,12.99
2022-10-25T01:45:49.212Z,13.01
2022-10-25T01:48:02.694Z,13.05
2022-10-25T01:50:11.663Z,13.02
2022-10-25T01:52:17.054Z,12.99
2022-10-25T01:54:25.095Z,13.01
2022-10-25T01:56:34.875Z,13.00
2022-10-25T01:58:48.836Z,13.00
2022-10-25T02:01:01.629Z,12.93
2022-10-25T02:03:19.652Z,12.95
2022-10-25T02:05:33.869Z,12.96
2022-10-25T02:07:41.714Z,12.95
2022-10-25T02:09:55.281Z,12.89
2022-10-25T02:12:03.488Z,12.84
2022-10-25T02:14:18.981Z,12.86
2022-10-25T02:16:28.099Z,12.79
2022-10-25T02:18:39.226Z,12.81
2022-10-25T02:20:46.929Z,12.84
2022-10-25T02:22:53.915Z,12.87
2022-10-25T02:25:00.643Z,12.87
2022-10-25T02:27:07.482Z,12.79
2022-10-25T02:29:14.641Z,12.78
2022-10-25T02:31:22.807Z,12.78
2022-10-25T02:33:28.534Z,12.79
2022-10-25T02:35:36.142Z,12.84
2022-10-25T02:37:40.867Z,12.81
2022-10-25T02:39:46.998Z,12.79
2022-10-25T02:41:51.694Z,12.81
2022-10-25T02:43:56.571Z,12.81
2022-10-25T02:46:01.686Z,12.79
2022-10-25T02:48:06.612Z,12.79
2022-10-25T02:50:12.485Z,12.81
2022-10-25T02:52:19.834Z,12.74
2022-10-25T02:54:24.756Z,12.78
2022-10-25T02:56:29.650Z,12.80
2022-10-25T02:58:36.681Z,12.80
2022-10-25T03:00:41.491Z,12.82
2022-10-25T03:02:46.596Z,12.76
2022-10-25T03:04:51.531Z,12.78
2022-10-25T03:06:57.621Z,12.76
2022-10-25T03:09:04.985Z,12.76
2022-10-25T03:11:10.798Z,12.76
2022-10-25T03:13:15.580Z,12.71
2022-10-25T03:15:20.502Z,12.75
2022-10-25T03:17:25.491Z,12.75
2022-10-25T03:19:30.176Z,12.70
2022-10-25T03:21:37.560Z,12.71
2022-10-25T03:23:44.700Z,12.73
2022-10-25T03:25:54.563Z,12.76
2022-10-25T03:28:00.450Z,12.74
2022-10-25T03:30:05.258Z,12.72
2022-10-25T03:32:10.034Z,12.72
2022-10-25T03:34:14.868Z,12.71
2022-10-25T03:36:20.205Z,12.71
2022-10-25T03:38:26.488Z,12.71
2022-10-25T03:40:31.479Z,12.71
2022-10-25T03:42:41.640Z,12.70
2022-10-25T03:44:46.337Z,12.72
2022-10-25T03:46:51.120Z,12.69
2022-10-25T03:48:55.845Z,12.66
2022-10-25T03:51:00.597Z,12.65
2022-10-25T03:53:05.847Z,12.64
2022-10-25T03:55:11.519Z,12.61
2022-10-25T03:57:16.436Z,12.60
2022-10-25T03:59:23.832Z,12.63
2022-10-25T04:01:30.904Z,12.62
2022-10-25T04:03:35.804Z,12.63
2022-10-25T04:05:40.538Z,12.66
2022-10-25T04:07:45.562Z,12.68
2022-10-25T04:09:50.639Z,12.68
2022-10-25T04:11:55.473Z,12.69
2022-10-25T04:14:00.196Z,12.70
2022-10-25T04:16:13.004Z,12.69
2022-10-25T04:18:18.609Z,12.69
2022-10-25T04:20:26.638Z,12.70
2022-10-25T04:22:31.409Z,12.69
2022-10-25T04:24:36.209Z,12.65
2022-10-25T04:26:40.971Z,12.65
2022-10-25T04:28:47.551Z,12.64
2022-10-25T04:30:55.018Z,12.66
2022-10-25T04:33:02.240Z,12.62
2022-10-25T04:35:08.158Z,12.62
2022-10-25T04:37:12.941Z,12.62
2022-10-25T04:39:18.268Z,12.61
2022-10-25T04:41:23.743Z,12.60
2022-10-25T04:43:31.088Z,12.61
2022-10-25T04:45:39.365Z,12.59
2022-10-25T04:47:44.086Z,12.61
2022-10-25T04:49:51.536Z,12.59
2022-10-25T04:51:56.332Z,12.58
2022-10-25T04:54:01.132Z,12.54
2022-10-25T04:56:08.695Z,12.53
2022-10-25T04:58:13.457Z,12.51
2022-10-25T05:00:18.325Z,12.50
2022-10-25T05:02:23.103Z,12.49
2022-10-25T05:04:27.927Z,12.45
2022-10-25T05:06:35.316Z,12.44
2022-10-25T05:08:42.434Z,12.43
2022-10-25T05:10:47.202Z,12.42
2022-10-25T05:12:52.067Z,12.42
2022-10-25T05:14:56.885Z,12.41
2022-10-25T05:17:01.842Z,12.40
2022-10-25T05:19:06.611Z,12.41
2022-10-25T05:21:12.874Z,12.43
2022-10-25T05:23:20.209Z,12.43
2022-10-25T05:25:24.934Z,12.45
2022-10-25T05:27:29.849Z,12.45
2022-10-25T05:29:35.558Z,12.47
2022-10-25T05:31:42.140Z,12.55
2022-10-25T05:33:47.846Z,12.65
2022-10-25T05:35:52.557Z,12.75
2022-10-25T05:37:57.267Z,12.84
2022-10-25T05:40:04.697Z,12.95
2022-10-25T05:42:09.413Z,13.03
2022-10-25T05:44:15.037Z,13.08
2022-10-25T05:46:21.089Z,13.12
2022-10-25T05:48:25.956Z,13.14
2022-10-25T05:50:30.721Z,13.14
2022-10-25T05:52:35.485Z,13.18
2022-10-25T05:54:40.220Z,13.23
2022-10-25T05:56:47.584Z,13.25
2022-10-25T05:58:52.942Z,13.26
2022-10-25T06:00:57.820Z,13.28
2022-10-25T06:03:03.951Z,13.30
2022-10-25T06:05:09.304Z,13.31
2022-10-25T06:07:13.762Z,13.28
2022-10-25T06:09:18.550Z,13.30
2022-10-25T06:11:23.393Z,13.35
2022-10-25T06:13:30.900Z,13.42
2022-10-25T06:15:35.765Z,13.46
2022-10-25T06:17:40.663Z,13.49
2022-10-25T06:19:45.390Z,13.52
2022-10-25T06:21:50.178Z,13.53
2022-10-25T06:23:55.138Z,13.52
2022-10-25T06:26:02.083Z,13.56
2022-10-25T06:28:09.458Z,13.56
2022-10-25T06:30:17.151Z,13.59
2022-10-25T06:32:21.990Z,13.58
2022-10-25T06:34:26.857Z,13.56
2022-10-25T06:36:32.776Z,13.52
2022-10-25T06:38:37.534Z,13.47
2022-10-25T06:40:42.294Z,13.45
2022-10-25T06:42:47.428Z,13.49
2022-10-25T06:44:52.163Z,13.52
2022-10-25T06:49:28.466Z,13.73
2022-10-25T06:51:33.560Z,13.78
2022-10-25T06:53:38.873Z,13.81
2022-10-25T06:55:45.099Z,13.88
2022-10-25T06:57:49.871Z,13.93
2022-10-25T06:59:54.709Z,14.01
2022-10-25T07:02:02.337Z,14.10
2022-10-25T07:04:07.323Z,14.14
2022-10-25T07:06:14.017Z,14.17
2022-10-25T07:08:18.842Z,14.20
2022-10-25T07:10:23.598Z,14.24
2022-10-25T07:12:28.873Z,14.25
2022-10-25T07:14:33.719Z,14.25
2022-10-25T07:16:38.884Z,14.28
2022-10-25T07:18:46.977Z,14.31
2022-10-25T07:20:51.760Z,14.34
2022-10-25T07:22:59.969Z,14.37
2022-10-25T07:25:06.518Z,14.43
2022-10-25T07:27:11.273Z,14.43
2022-10-25T07:29:16.021Z,14.40
2022-10-25T07:31:22.658Z,14.36
2022-10-25T07:33:27.411Z,14.33
2022-10-25T07:35:42.093Z,14.36
2022-10-25T07:37:57.232Z,14.36
2022-10-25T07:40:01.990Z,14.35
2022-10-25T07:42:06.794Z,14.33
2022-10-25T07:44:16.056Z,14.27
2022-10-25T07:46:22.298Z,14.20
2022-10-25T07:48:27.053Z,14.17
2022-10-25T07:50:34.532Z,14.18
2022-10-25T07:52:39.345Z,14.15
2022-10-25T07:56:48.744Z,14.19
2022-10-25T07:58:53.923Z,14.19
2022-10-25T08:01:02.835Z,14.18
2022-10-25T08:03:07.803Z,14.20
2022-10-25T08:05:12.872Z,14.21
2022-10-25T08:07:20.230Z,14.24
2022-10-25T08:09:37.726Z,14.24
2022-10-25T08:11:43.087Z,14.26
2022-10-25T08:13:51.332Z,14.29
2022-10-25T08:15:57.127Z,14.29
2022-10-25T08:18:02.273Z,14.32
2022-10-25T08:20:07.198Z,14.31
2022-10-25T08:22:11.943Z,14.37
2022-10-25T08:26:26.827Z,14.48
2022-10-25T08:28:32.332Z,14.52
2022-10-25T08:30:37.333Z,14.59
2022-10-25T08:32:42.239Z,14.57
2022-10-25T08:34:47.010Z,14.59
2022-10-25T08:36:51.962Z,14.71
2022-10-25T08:38:56.681Z,14.79
2022-10-25T08:41:14.032Z,14.83
2022-10-25T08:43:32.785Z,14.93
2022-10-25T08:45:43.784Z,14.98
2022-10-25T08:47:55.868Z,15.05
2022-10-25T08:50:05.467Z,15.12
2022-10-25T08:52:21.180Z,15.21
2022-10-25T08:54:36.004Z,15.27
2022-10-25T08:56:56.963Z,15.35
2022-10-25T08:59:09.357Z,15.35
2022-10-25T09:01:18.781Z,15.38
2022-10-25T09:03:27.265Z,15.49
2022-10-25T09:05:40.181Z,15.59
2022-10-25T09:08:02.057Z,15.58
2022-10-25T09:10:18.490Z,15.65
2022-10-25T09:12:35.979Z,15.66
2022-10-25T09:14:48.487Z,15.77
2022-10-25T09:16:55.290Z,15.84
2022-10-25T09:19:00.393Z,15.90
2022-10-25T09:21:13.539Z,15.84
2022-10-25T09:23:31.756Z,15.89
2022-10-25T09:25:45.242Z,15.87
2022-10-25T09:28:03.687Z,15.88
2022-10-25T09:30:11.548Z,16.01
2022-10-25T09:32:22.473Z,16.00
2022-10-25T09:34:30.630Z,15.96
2022-10-25T09:36:41.210Z,16.04
2022-10-25T09:38:50.062Z,16.15
2022-10-25T09:41:02.778Z,16.20
2022-10-25T09:43:17.431Z,16.20
2022-10-25T09:45:28.437Z,16.15
2022-10-25T09:47:43.035Z,16.26
2022-10-25T09:49:57.455Z,16.27
2022-10-25T09:52:09.809Z,16.22
2022-10-25T09:54:21.999Z,16.20
2022-10-25T09:56:26.775Z,16.22
2022-10-25T09:58:36.160Z,16.14
2022-10-25T10:00:42.964Z,16.19
2022-10-25T10:02:48.023Z,16.33
2022-10-25T10:04:53.073Z,16.22
2022-10-25T10:07:04.238Z,16.40
2022-10-25T10:09:10.887Z,16.41
2022-10-25T10:11:20.021Z,16.52
2022-10-25T10:13:39.100Z,16.27
2022-10-25T10:15:52.817Z,16.24
2022-10-25T10:18:29.061Z,16.28
2022-10-25T10:20:33.875Z,16.36
2022-10-25T10:22:40.722Z,16.43
2022-10-25T10:24:47.594Z,16.51
2022-10-25T10:26:55.765Z,16.57
2022-10-25T10:29:17.605Z,16.70
2022-10-25T10:31:22.799Z,16.69
2022-10-25T10:33:33.364Z,16.70
2022-10-25T10:35:39.839Z,16.80
2022-10-25T10:37:44.827Z,16.90
2022-10-25T10:39:53.303Z,16.60
2022-10-25T10:42:03.026Z,16.73
2022-10-25T10:44:16.953Z,16.64
2022-10-25T10:46:24.831Z,16.60
2022-10-25T10:48:42.033Z,16.63
2022-10-25T10:50:51.906Z,16.75
2022-10-25T10:53:01.117Z,16.80
2022-10-25T10:55:06.492Z,16.90
2022-10-25T10:57:27.866Z,17.12
2022-10-25T10:59:47.615Z,17.24
2022-10-25T11:01:52.554Z,17.22
2022-10-25T11:04:01.262Z,17.20
2022-10-25T11:06:11.025Z,17.24
2022-10-25T11:08:21.750Z,17.30
2022-10-25T11:10:36.505Z,17.19
2022-10-25T11:12:41.431Z,17.07
2022-10-25T11:14:48.815Z,17.04
2022-10-25T11:17:04.979Z,17.10
2022-10-25T11:19:28.856Z,17.21
2022-10-25T11:22:03.343Z,17.46
2022-10-25T11:24:23.426Z,17.71
2022-10-25T11:26:38.427Z,17.57
2022-10-25T11:28:53.657Z,17.43
2022-10-25T11:31:08.765Z,17.52
2022-10-25T11:33:35.542Z,17.59
2022-10-25T11:35:50.902Z,17.77
2022-10-25T11:38:04.190Z,17.80
2022-10-25T11:40:17.666Z,17.87
2022-10-25T11:42:55.415Z,17.86
2022-10-25T11:45:24.664Z,17.95
2022-10-25T11:47:43.350Z,17.98
2022-10-25T11:50:01.246Z,17.86
2022-10-25T11:52:22.900Z,17.81
2022-10-25T11:54:38.798Z,17.77
2022-10-25T11:56:53.360Z,17.83
2022-10-25T11:59:06.796Z,17.84
2022-10-25T12:01:26.743Z,17.71
2022-10-25T12:03:59.553Z,17.53
2022-10-25T12:06:19.361Z,17.52
2022-10-25T12:08:33.848Z,17.45
2022-10-25T12:10:42.499Z,17.33
2022-10-25T12:12:51.795Z,17.23
2022-10-25T12:15:01.002Z,17.11
2022-10-25T12:17:08.707Z,17.08
2022-10-25T12:19:23.153Z,17.01
2022-10-25T12:21:31.117Z,17.07
2022-10-25T12:23:44.036Z,16.89
2022-10-25T12:25:53.185Z,16.83
2022-10-25T12:28:06.911Z,16.84
2022-10-25T12:30:18.828Z,16.83
2022-10-25T12:32:28.174Z,16.77
2022-10-25T12:34:44.158Z,16.86
2022-10-25T12:36:54.143Z,17.00
2022-10-25T12:39:02.681Z,17.09
2022-10-25T12:41:12.293Z,17.19
2022-10-25T12:43:23.900Z,17.17
2022-10-25T12:45:58.381Z,17.07
2022-10-25T12:48:21.085Z,16.98
2022-10-25T12:50:50.323Z,16.94
2022-10-25T12:53:29.409Z,17.00
2022-10-25T12:55:45.984Z,16.89
2022-10-25T12:58:02.731Z,16.96
2022-10-25T13:00:14.666Z,16.95
2022-10-25T13:02:47.687Z,16.84
2022-10-25T13:05:09.407Z,16.82
2022-10-25T13:07:18.457Z,16.89
2022-10-25T13:09:27.291Z,17.02
2022-10-25T13:11:37.289Z,17.06
2022-10-25T13:13:49.468Z,16.94
2022-10-25T13:15:58.203Z,16.94
2022-10-25T13:18:07.766Z,16.91
2022-10-25T13:20:45.179Z,16.93
2022-10-25T13:22:53.093Z,16.90
2022-10-25T13:24:58.602Z,16.84
2022-10-25T13:27:22.845Z,16.86
2022-10-25T13:29:49.947Z,16.90
2022-10-25T13:32:11.630Z,16.84
2022-10-25T13:34:34.424Z,16.82
2022-10-25T13:36:52.496Z,16.80
2022-10-25T13:39:09.046Z,16.82
2022-10-25T13:41:19.953Z,16.94
2022-10-25T13:43:25.009Z,17.05
2022-10-25T13:45:37.419Z,17.20
2022-10-25T13:47:44.582Z,17.35
2022-10-25T13:49:51.039Z,17.40
2022-10-25T13:51:59.033Z,17.51
2022-10-25T13:54:11.692Z,17.59
2022-10-25T13:56:19.118Z,17.81
2022-10-25T13:58:52.817Z,17.87
2022-10-25T14:00:59.183Z,18.00
2022-10-25T14:03:38.158Z,18.15
2022-10-25T14:06:21.534Z,18.06
2022-10-25T14:08:32.847Z,18.06
2022-10-25T14:10:41.268Z,18.00
2022-10-25T14:12:51.080Z,17.94
2022-10-25T14:15:05.073Z,17.92
2022-10-25T14:17:19.090Z,17.80
2022-10-25T14:19:32.934Z,17.68
2022-10-25T14:21:41.818Z,17.58
2022-10-25T14:23:46.623Z,17.56
2022-10-25T14:25:59.963Z,17.69
2022-10-25T14:28:10.816Z,17.69
2022-10-25T14:30:26.877Z,17.72
2022-10-25T14:32:31.718Z,17.79
2022-10-25T14:34:36.707Z,17.79
2022-10-25T14:36:41.633Z,17.81
2022-10-25T14:38:54.594Z,17.62
2022-10-25T14:41:04.713Z,17.56
2022-10-25T14:43:24.984Z,17.53
2022-10-25T14:45:32.413Z,17.45
2022-10-25T14:47:38.346Z,17.47
2022-10-25T14:49:43.187Z,17.36
2022-10-25T14:51:48.631Z,17.14
2022-10-25T14:54:00.424Z,17.07
2022-10-25T14:56:09.358Z,17.08
2022-10-25T14:58:14.940Z,17.00
2022-10-25T15:00:22.691Z,17.02
2022-10-25T15:02:31.750Z,16.96
2022-10-25T15:04:41.574Z,16.88
2022-10-25T15:06:46.633Z,16.81
2022-10-25T15:08:55.679Z,16.80
2022-10-25T15:11:10.995Z,16.73
2022-10-25T15:13:19.431Z,16.83
2022-10-25T15:15:36.448Z,16.85
2022-10-25T15:17:41.469Z,16.85
2022-10-25T15:20:02.214Z,16.75
2022-10-25T15:22:11.590Z,16.75
2022-10-25T15:24:19.281Z,16.70
2022-10-25T15:26:35.701Z,16.70
2022-10-25T15:28:50.118Z,16.71
2022-10-25T15:31:05.197Z,16.68
2022-10-25T15:33:13.564Z,16.61
2022-10-25T15:35:28.944Z,16.60
2022-10-25T15:37:33.680Z,16.61
2022-10-25T15:39:38.622Z,16.61
2022-10-25T15:41:45.995Z,16.60
2022-10-25T15:43:50.792Z,16.53
2022-10-25T15:45:56.899Z,16.55
2022-10-25T15:48:01.835Z,16.52
2022-10-25T15:50:15.656Z,16.49
2022-10-25T15:52:20.524Z,16.48
2022-10-25T15:54:28.920Z,16.48
2022-10-25T15:56:33.852Z,16.48
2022-10-25T15:58:41.217Z,16.47
2022-10-25T16:00:46.656Z,16.45
2022-10-25T16:02:51.882Z,16.44
2022-10-25T16:04:56.708Z,16.40
2022-10-25T16:07:01.434Z,16.41
2022-10-25T16:09:06.316Z,16.37
2022-10-25T16:11:16.181Z,16.34
2022-10-25T16:13:29.248Z,16.29
2022-10-25T16:15:36.845Z,16.24
2022-10-25T16:17:41.645Z,16.20
2022-10-25T16:19:46.374Z,16.13
2022-10-25T16:21:51.638Z,16.09
2022-10-25T16:23:56.378Z,16.08
2022-10-25T16:26:01.284Z,16.06
2022-10-25T16:28:06.190Z,15.99
2022-10-25T16:30:16.039Z,15.91
2022-10-25T16:32:23.343Z,15.87
2022-10-25T16:34:32.432Z,15.78
2022-10-25T16:36:37.280Z,15.76
2022-10-25T16:38:42.088Z,15.75
2022-10-25T16:40:47.762Z,15.74
2022-10-25T16:42:52.666Z,15.75
2022-10-25T16:44:57.402Z,15.73
2022-10-25T16:47:02.297Z,15.72
2022-10-25T16:49:09.837Z,15.71
2022-10-25T16:51:15.687Z,15.68
2022-10-25T16:53:20.418Z,15.64
2022-10-25T16:55:26.834Z,15.63
2022-10-25T16:57:31.571Z,15.60
2022-10-25T16:59:36.383Z,15.55
2022-10-25T17:01:44.585Z,15.50
2022-10-25T17:03:53.965Z,15.47
2022-10-25T17:06:22.053Z,15.42
2022-10-25T17:08:30.855Z,15.34
2022-10-25T17:10:36.210Z,15.29
2022-10-25T17:12:45.851Z,15.28
2022-10-25T17:14:50.787Z,15.25
2022-10-25T17:16:58.314Z,15.23
2022-10-25T17:19:05.898Z,15.20
2022-10-25T17:21:15.292Z,15.17
2022-10-25T17:23:19.990Z,15.15
2022-10-25T17:25:24.760Z,15.12
2022-10-25T17:27:31.457Z,15.10
2022-10-25T17:29:36.217Z,15.08
2022-10-25T17:31:41.086Z,15.05
2022-10-25T17:33:46.409Z,15.02
2022-10-25T17:35:50.891Z,14.96
2022-10-25T17:37:59.101Z,14.93
2022-10-25T17:40:04.138Z,14.93
2022-10-25T17:42:08.701Z,14.86
2022-10-25T17:44:13.764Z,14.82
2022-10-25T17:46:19.655Z,14.73
2022-10-25T17:48:24.530Z,14.66
2022-10-25T17:50:34.744Z,14.65
2022-10-25T17:52:41.463Z,14.64
2022-10-25T17:54:48.918Z,14.64
2022-10-25T17:56:56.511Z,14.61
2022-10-25T17:59:04.303Z,14.61
2022-10-25T18:01:12.373Z,14.60
2022-10-25T18:03:17.308Z,14.58
2022-10-25T18:05:23.487Z,14.58
2022-10-25T18:07:31.250Z,14.56
2022-10-25T18:09:38.913Z,14.55
2022-10-25T18:11:46.889Z,14.53
2022-10-25T18:13:52.327Z,14.50
2022-10-25T18:15:57.110Z,14.51
2022-10-25T18:18:02.030Z,14.47
2022-10-25T18:20:07.555Z,14.44
2022-10-25T18:22:12.298Z,14.36
2022-10-25T18:24:17.357Z,14.31
2022-10-25T18:26:22.215Z,14.27
2022-10-25T18:28:31.317Z,14.26
2022-10-25T18:30:36.550Z,14.20
2022-10-25T18:32:41.331Z,14.16
2022-10-25T18:34:46.122Z,14.12
2022-10-25T18:36:50.929Z,14.11
2022-10-25T18:38:55.891Z,14.09
2022-10-25T18:41:00.687Z,14.07
2022-10-25T18:43:05.536Z,14.08
2022-10-25T18:45:13.145Z,14.08
2022-10-25T18:47:17.936Z,14.07
2022-10-25T18:49:22.842Z,14.08
2022-10-25T18:51:32.042Z,14.08
2022-10-25T18:53:41.801Z,14.09
2022-10-25T18:55:47.453Z,14.12
2022-10-25T18:57:52.390Z,14.14
2022-10-25T18:59:57.072Z,14.14
2022-10-25T19:02:05.877Z,14.13
2022-10-25T19:04:12.275Z,14.08
2022-10-25T19:06:17.445Z,14.06
2022-10-25T19:08:22.005Z,13.98
2022-10-25T19:10:26.851Z,13.97
2022-10-25T19:12:37.647Z,13.99
2022-10-25T19:17:16.875Z,13.94
2022-10-25T19:19:23.287Z,13.89
2022-10-25T19:21:31.854Z,13.88
2022-10-25T19:23:37.330Z,13.84
2022-10-25T19:25:42.199Z,13.82
2022-10-25T19:27:47.245Z,13.77
2022-10-25T19:29:52.063Z,13.70
2022-10-25T19:31:59.348Z,13.65
2022-10-25T19:34:09.557Z,13.63
2022-10-25T19:36:18.108Z,13.61
2022-10-25T19:38:27.415Z,13.57
2022-10-25T19:40:34.872Z,13.56
2022-10-25T19:42:43.971Z,13.55
2022-10-25T19:44:49.578Z,13.53
2022-10-25T19:46:59.362Z,13.54
2022-10-25T19:49:13.062Z,13.56
2022-10-25T19:51:20.143Z,13.52
2022-10-25T19:53:30.448Z,13.50
2022-10-25T19:55:38.285Z,13.49
2022-10-25T19:57:43.872Z,13.46
2022-10-25T19:59:48.756Z,13.47
2022-10-25T20:01:59.527Z,13.47
2022-10-25T20:04:13.953Z,13.47
2022-10-25T20:06:25.118Z,13.45
2022-10-25T20:08:43.752Z,13.43
2022-10-25T20:10:52.882Z,13.43
2022-10-25T20:12:59.698Z,13.42
2022-10-25T20:15:04.455Z,13.38
2022-10-25T20:17:09.313Z,13.39
2022-10-25T20:19:19.956Z,13.38
2022-10-25T20:21:29.408Z,13.39
2022-10-25T20:23:34.250Z,13.40
2022-10-25T20:25:44.233Z,13.38
2022-10-25T20:27:53.640Z,13.38
2022-10-25T20:30:01.157Z,13.39
2022-10-25T20:32:09.197Z,13.40
2022-10-25T20:34:14.078Z,13.40
2022-10-25T20:36:34.765Z,13.42
2022-10-25T20:38:44.542Z,13.38
2022-10-25T20:40:53.647Z,13.36
2022-10-25T20:43:03.026Z,13.35
2022-10-25T20:45:13.794Z,13.34
2022-10-25T20:47:20.576Z,13.33
2022-10-25T20:49:29.395Z,13.32
2022-10-25T20:51:38.074Z,13.30
2022-10-25T20:53:44.185Z,13.28
2022-10-25T20:55:49.569Z,13.27
2022-10-25T20:57:54.354Z,13.26
2022-10-25T20:59:59.165Z,13.26
2022-10-25T21:02:03.983Z,13.26
2022-10-25T21:04:08.796Z,13.25
2022-10-25T21:06:14.570Z,13.25
2022-10-25T21:08:23.019Z,13.26
2022-10-25T21:10:27.956Z,13.25
2022-10-25T21:12:32.699Z,13.25
2022-10-25T21:14:37.621Z,13.22
2022-10-25T21:16:43.551Z,13.22
2022-10-25T21:18:48.317Z,13.20
2022-10-25T21:20:53.698Z,13.19
2022-10-25T21:22:58.557Z,13.17
2022-10-25T21:25:06.286Z,13.14
2022-10-25T21:27:10.986Z,13.11
2022-10-25T21:29:15.929Z,13.10
2022-10-25T21:31:20.673Z,13.06
2022-10-25T21:33:27.838Z,13.05
2022-10-25T21:35:32.974Z,13.05
2022-10-25T21:37:37.507Z,12.98
2022-10-25T21:39:43.477Z,12.96
2022-10-25T21:41:50.889Z,12.96
2022-10-25T21:43:57.017Z,12.95
2022-10-25T21:46:06.382Z,12.95
2022-10-25T21:48:11.193Z,12.94
2022-10-25T21:50:16.183Z,12.95
2022-10-25T21:52:20.915Z,12.94
2022-10-25T21:54:27.729Z,12.91
2022-10-25T21:56:33.269Z,12.92
2022-10-25T21:58:40.738Z,12.91
2022-10-25T22:00:45.590Z,12.89
2022-10-25T22:02:50.354Z,12.89
2022-10-25T22:04:57.522Z,12.88
2022-10-25T22:07:02.398Z,12.82
2022-10-25T22:09:07.274Z,12.76
2022-10-25T22:11:15.874Z,12.75
2022-10-25T22:13:20.687Z,12.75
2022-10-25T22:15:30.975Z,12.77
2022-10-25T22:17:35.694Z,12.78
2022-10-25T22:19:40.576Z,12.79
2022-10-25T22:21:45.879Z,12.83
2022-10-25T22:23:50.810Z,12.84
2022-10-25T22:25:55.826Z,12.86
2022-10-25T22:28:00.553Z,12.87
2022-10-25T22:30:05.352Z,12.87
2022-10-25T22:32:12.744Z,12.91
2022-10-25T22:34:17.507Z,12.93
2022-10-25T22:36:23.692Z,12.94
2022-10-25T22:38:30.107Z,12.95
2022-10-25T22:40:34.913Z,12.95
2022-10-25T22:42:39.632Z,12.90
2022-10-25T22:44:44.479Z,12.91
2022-10-25T22:46:49.169Z,12.93
2022-10-25T22:48:57.876Z,12.94
2022-10-25T22:51:03.315Z,12.95
2022-10-25T22:53:08.075Z,12.92
2022-10-25T22:55:12.789Z,12.91
2022-10-25T22:57:17.515Z,12.91
2022-10-25T22:59:22.386Z,12.88
2022-10-25T23:01:28.635Z,12.85
2022-10-25T23:03:35.305Z,12.83
2022-10-25T23:05:42.806Z,12.79
2022-10-25T23:07:47.552Z,12.75
2022-10-25T23:09:52.415Z,12.71
2022-10-25T23:11:57.145Z,12.66
2022-10-25T23:14:03.742Z,12.66
2022-10-25T23:16:09.809Z,12.65
2022-10-25T23:18:14.546Z,12.67
2022-10-25T23:20:19.431Z,12.67
2022-10-25T23:22:26.863Z,12.68
2022-10-25T23:24:31.576Z,12.67
2022-10-25T23:26:37.930Z,12.62
2022-10-25T23:28:42.741Z,12.61
2022-10-25T23:30:47.834Z,12.56
2022-10-25T23:32:52.552Z,12.53
2022-10-25T23:34:57.411Z,12.50
2022-10-25T23:37:02.135Z,12.48
2022-10-25T23:39:10.581Z,12.46
2022-10-25T23:41:15.988Z,12.44
2022-10-25T23:43:20.708Z,12.44
2022-10-25T23:45:27.692Z,12.40
2022-10-25T23:47:34.372Z,12.37
2022-10-25T23:49:39.064Z,12.35
2022-10-25T23:51:43.773Z,12.34
2022-10-25T23:53:48.918Z,12.33
2022-10-25T23:55:57.529Z,12.30
2022-10-25T23:58:02.770Z,12.27
